createdAt,value
2023-05-18T00:02:26.744Z,51.06
2023-05-18T00:05:02.387Z,51.06
2023-05-18T00:07:34.392Z,51.43
2023-05-18T00:10:06.458Z,51.58
2023-05-18T00:12:37.875Z,51.65
2023-05-18T00:15:11.584Z,51.86
2023-05-18T00:17:42.986Z,51.87
2023-05-18T00:20:15.527Z,52.11
2023-05-18T00:22:48.484Z,52.23
2023-05-18T00:25:20.129Z,52.28
2023-05-18T00:27:52.240Z,52.30
2023-05-18T00:30:26.145Z,52.39
2023-05-18T00:32:57.517Z,52.56
2023-05-18T00:35:30.112Z,52.57
2023-05-18T00:38:01.714Z,52.38
2023-05-18T00:40:33.026Z,52.24
2023-05-18T00:43:04.506Z,52.22
2023-05-18T00:45:36.002Z,51.98
2023-05-18T00:48:08.139Z,51.97
2023-05-18T00:50:39.741Z,52.03
2023-05-18T00:53:12.075Z,51.98
2023-05-18T00:55:43.485Z,52.09
2023-05-18T00:58:14.899Z,52.16
2023-05-18T01:00:46.357Z,52.30
2023-05-18T01:03:20.397Z,52.50
2023-05-18T01:05:56.010Z,52.81
2023-05-18T01:08:27.495Z,52.92
2023-05-18T01:11:04.821Z,53.16
2023-05-18T01:13:43.364Z,53.49
2023-05-18T01:16:17.621Z,53.80
2023-05-18T01:18:55.364Z,54.15
2023-05-18T01:21:46.584Z,54.28
2023-05-18T01:24:26.810Z,54.41
2023-05-18T01:27:01.422Z,54.32
2023-05-18T01:29:32.802Z,54.64
2023-05-18T01:32:05.876Z,55.09
2023-05-18T01:34:37.219Z,55.25
2023-05-18T01:37:08.877Z,55.20
2023-05-18T01:39:40.238Z,55.16
2023-05-18T01:42:14.691Z,55.57
2023-05-18T01:44:47.190Z,56.28
2023-05-18T01:47:18.946Z,56.93
2023-05-18T01:49:53.019Z,57.38
2023-05-18T01:52:26.576Z,58.11
2023-05-18T01:54:59.654Z,58.68
2023-05-18T01:57:31.393Z,58.87
2023-05-18T02:00:01.326Z,59.34
2023-05-18T02:02:32.975Z,59.22
2023-05-18T02:05:02.834Z,58.80
2023-05-18T02:07:34.455Z,58.52
2023-05-18T02:10:06.537Z,58.26
2023-05-18T02:12:37.979Z,58.09
2023-05-18T02:15:11.364Z,57.93
2023-05-18T02:17:42.834Z,57.76
2023-05-18T02:20:18.593Z,57.51
2023-05-18T02:22:50.035Z,57.76
2023-05-18T02:25:21.629Z,57.58
2023-05-18T02:27:53.272Z,57.71
2023-05-18T02:30:25.046Z,57.53
2023-05-18T02:32:55.446Z,57.61
2023-05-18T02:35:27.217Z,57.70
2023-05-18T02:37:58.916Z,57.76
2023-05-18T02:40:30.667Z,57.55
2023-05-18T02:43:02.013Z,57.64
2023-05-18T02:45:32.274Z,57.58
2023-05-18T02:48:04.318Z,57.43
2023-05-18T02:50:35.917Z,57.55
2023-05-18T02:53:07.235Z,57.72
2023-05-18T02:55:39.170Z,57.90
2023-05-18T02:58:16.347Z,58.21
2023-05-18T03:01:14.245Z,57.94
2023-05-18T03:03:51.745Z,57.70
2023-05-18T03:06:27.097Z,57.55
2023-05-18T03:09:00.161Z,56.99
2023-05-18T03:11:37.337Z,56.70
2023-05-18T03:14:09.221Z,56.32
2023-05-18T03:16:41.325Z,55.70
2023-05-18T03:19:16.517Z,55.38
2023-05-18T03:21:46.314Z,55.02
2023-05-18T03:24:17.818Z,54.55
2023-05-18T03:26:54.743Z,54.70
2023-05-18T03:29:26.529Z,54.44
2023-05-18T03:31:58.497Z,54.34
2023-05-18T03:34:29.929Z,54.26
2023-05-18T03:37:02.166Z,53.98
2023-05-18T03:39:34.040Z,53.86
2023-05-18T03:42:05.705Z,53.59
2023-05-18T03:44:37.424Z,53.67
2023-05-18T03:47:08.116Z,53.59
2023-05-18T03:49:39.737Z,52.95
2023-05-18T03:52:11.800Z,52.58
2023-05-18T03:54:44.481Z,52.43
2023-05-18T03:57:16.104Z,52.97
2023-05-18T03:59:47.993Z,53.01
2023-05-18T04:02:19.740Z,53.22
2023-05-18T04:04:54.239Z,53.37
2023-05-18T04:07:25.592Z,53.37
2023-05-18T04:09:58.207Z,52.98
2023-05-18T04:12:29.844Z,52.86
2023-05-18T04:15:01.313Z,52.55
2023-05-18T04:17:33.858Z,52.06
2023-05-18T04:20:14.327Z,51.74
2023-05-18T04:22:48.624Z,51.52
2023-05-18T04:25:21.642Z,51.90
2023-05-18T04:27:51.854Z,51.92
2023-05-18T04:30:24.972Z,51.53
2023-05-18T04:32:59.571Z,51.56
2023-05-18T04:35:33.133Z,51.15
2023-05-18T04:38:05.533Z,51.00
2023-05-18T04:40:38.709Z,50.65
2023-05-18T04:43:11.705Z,50.72
2023-05-18T04:45:46.841Z,50.73
2023-05-18T04:48:19.403Z,50.54
2023-05-18T04:50:54.503Z,50.33
2023-05-18T04:53:27.660Z,49.73
2023-05-18T04:56:01.113Z,49.47
2023-05-18T04:58:34.305Z,49.53
2023-05-18T05:01:07.153Z,49.14
2023-05-18T05:03:38.941Z,49.18
2023-05-18T05:06:09.189Z,48.85
2023-05-18T05:08:41.057Z,47.98
2023-05-18T05:11:10.973Z,47.92
2023-05-18T05:13:42.449Z,47.42
2023-05-18T05:16:14.855Z,47.20
2023-05-18T05:18:47.446Z,46.78
2023-05-18T05:21:19.911Z,46.25
2023-05-18T05:23:49.860Z,45.89
2023-05-18T05:26:21.746Z,46.08
2023-05-18T05:28:53.295Z,45.55
2023-05-18T05:31:24.810Z,45.32
2023-05-18T05:33:56.523Z,45.41
2023-05-18T05:36:27.992Z,45.48
2023-05-18T05:38:59.653Z,45.33
2023-05-18T05:41:31.081Z,45.11
2023-05-18T05:44:04.056Z,44.50
2023-05-18T05:46:35.724Z,43.94
2023-05-18T05:49:08.207Z,44.01
2023-05-18T05:51:39.792Z,44.00
2023-05-18T05:54:12.059Z,44.16
2023-05-18T05:56:43.880Z,43.93
2023-05-18T05:59:16.414Z,43.62
2023-05-18T06:01:48.591Z,43.50
2023-05-18T06:04:20.899Z,43.72
2023-05-18T06:06:53.946Z,43.78
2023-05-18T06:09:32.395Z,43.64
2023-05-18T06:12:05.348Z,44.15
2023-05-18T06:14:38.655Z,43.92
2023-05-18T06:17:11.052Z,42.73
2023-05-18T06:19:43.333Z,42.41
2023-05-18T06:22:15.515Z,42.34
2023-05-18T06:24:59.160Z,41.19
2023-05-18T06:27:44.842Z,41.62
2023-05-18T06:30:42.015Z,40.12
2023-05-18T06:33:26.302Z,39.66
2023-05-18T06:35:58.669Z,39.28
2023-05-18T06:38:30.745Z,39.00
2023-05-18T06:41:02.988Z,39.09
2023-05-18T06:43:40.546Z,38.51
2023-05-18T06:46:26.813Z,38.96
2023-05-18T06:49:22.441Z,38.44
2023-05-18T06:52:06.241Z,38.45
2023-05-18T06:54:43.914Z,37.69
2023-05-18T06:57:17.071Z,37.37
2023-05-18T06:59:54.354Z,36.76
2023-05-18T07:02:29.146Z,36.17
2023-05-18T07:05:01.917Z,36.12
2023-05-18T07:07:33.983Z,35.72
2023-05-18T07:10:08.279Z,35.98
2023-05-18T07:12:41.140Z,35.27
2023-05-18T07:15:15.093Z,34.52
2023-05-18T07:17:47.466Z,34.12
2023-05-18T07:20:20.572Z,33.80
2023-05-18T07:22:55.552Z,33.77
2023-05-18T07:25:28.369Z,33.16
2023-05-18T07:28:03.694Z,32.88
2023-05-18T07:30:35.610Z,33.50
2023-05-18T07:33:07.301Z,33.69
2023-05-18T07:35:39.319Z,34.48
2023-05-18T07:38:11.238Z,34.02
2023-05-18T07:40:42.734Z,33.57
2023-05-18T07:43:14.387Z,32.95
2023-05-18T07:45:45.777Z,32.34
2023-05-18T07:48:17.279Z,32.48
2023-05-18T07:50:49.024Z,32.47
2023-05-18T07:53:18.899Z,32.42
2023-05-18T07:55:50.480Z,32.51
2023-05-18T07:58:20.248Z,32.07
2023-05-18T08:00:52.140Z,32.10
2023-05-18T08:03:23.857Z,31.86
2023-05-18T08:05:56.001Z,31.41
2023-05-18T08:08:27.592Z,31.10
2023-05-18T08:11:00.752Z,31.44
2023-05-18T08:13:33.849Z,30.45
2023-05-18T08:16:11.905Z,30.46
2023-05-18T08:18:44.024Z,31.15
2023-05-18T08:21:15.824Z,31.80
2023-05-18T08:23:45.701Z,31.16
2023-05-18T08:26:17.611Z,31.19
2023-05-18T08:28:50.192Z,31.49
2023-05-18T08:31:21.816Z,31.20
2023-05-18T08:33:54.136Z,30.96
2023-05-18T08:36:25.520Z,31.26
2023-05-18T08:38:57.421Z,31.26
2023-05-18T08:41:32.615Z,31.17
2023-05-18T08:44:05.497Z,31.05
2023-05-18T08:46:38.147Z,31.52
2023-05-18T08:49:10.828Z,31.58
2023-05-18T08:51:42.963Z,30.78
2023-05-18T08:54:15.505Z,31.20
2023-05-18T08:56:47.360Z,30.76
2023-05-18T08:59:20.629Z,31.51
2023-05-18T09:01:52.542Z,31.37
2023-05-18T09:04:24.643Z,30.86
2023-05-18T09:07:00.585Z,30.34
2023-05-18T09:09:32.284Z,30.11
2023-05-18T09:12:02.208Z,30.09
2023-05-18T09:14:33.868Z,30.22
2023-05-18T09:17:05.648Z,29.37
2023-05-18T09:19:37.785Z,29.31
2023-05-18T09:22:09.808Z,28.26
2023-05-18T09:24:41.420Z,28.01
2023-05-18T09:27:13.252Z,28.55
2023-05-18T09:29:54.831Z,28.61
2023-05-18T09:32:26.280Z,28.97
2023-05-18T09:34:57.792Z,29.44
2023-05-18T09:37:27.666Z,28.95
2023-05-18T09:40:05.252Z,28.37
2023-05-18T09:42:39.730Z,28.79
2023-05-18T09:45:19.531Z,29.19
2023-05-18T09:47:51.259Z,29.26
2023-05-18T09:50:23.836Z,29.48
2023-05-18T09:52:57.808Z,29.05
2023-05-18T09:55:29.360Z,28.94
2023-05-18T09:58:03.648Z,28.22
2023-05-18T10:00:36.701Z,27.22
2023-05-18T10:03:08.632Z,27.40
2023-05-18T10:05:40.332Z,27.35
2023-05-18T10:08:11.722Z,27.47
2023-05-18T10:10:43.846Z,26.30
2023-05-18T10:13:19.140Z,26.51
2023-05-18T10:15:52.659Z,26.75
2023-05-18T10:18:25.393Z,26.51
2023-05-18T10:20:59.859Z,25.91
2023-05-18T10:23:34.571Z,26.18
2023-05-18T10:26:07.867Z,25.93
2023-05-18T10:28:43.075Z,26.26
2023-05-18T10:31:14.617Z,26.24
2023-05-18T10:33:46.403Z,26.03
2023-05-18T10:36:17.943Z,26.23
2023-05-18T10:38:49.427Z,25.91
2023-05-18T10:41:19.337Z,25.61
2023-05-18T10:43:51.056Z,25.43
2023-05-18T10:46:26.971Z,25.46
2023-05-18T10:48:58.778Z,25.46
2023-05-18T10:51:31.895Z,26.10
2023-05-18T10:54:15.137Z,25.98
2023-05-18T10:56:50.613Z,26.19
2023-05-18T10:59:23.465Z,25.79
2023-05-18T11:01:55.602Z,25.89
2023-05-18T11:04:30.432Z,26.02
2023-05-18T11:07:02.607Z,25.78
2023-05-18T11:09:34.066Z,25.96
2023-05-18T11:12:05.733Z,25.63
2023-05-18T11:14:37.324Z,25.65
2023-05-18T11:17:25.677Z,25.54
2023-05-18T11:20:19.776Z,25.55
2023-05-18T11:22:52.784Z,25.84
2023-05-18T11:25:42.103Z,26.19
2023-05-18T11:28:14.338Z,25.85
2023-05-18T11:30:52.811Z,26.03
2023-05-18T11:33:30.108Z,26.00
2023-05-18T11:36:11.783Z,26.15
2023-05-18T11:38:51.981Z,26.55
2023-05-18T11:41:36.514Z,25.67
2023-05-18T11:44:16.371Z,24.92
2023-05-18T11:47:02.416Z,25.18
2023-05-18T11:49:38.056Z,25.48
2023-05-18T11:52:17.601Z,25.38
2023-05-18T11:54:52.484Z,25.91
2023-05-18T11:57:31.428Z,26.55
2023-05-18T12:00:06.861Z,26.02
2023-05-18T12:02:46.541Z,26.22
2023-05-18T12:05:18.288Z,26.66
2023-05-18T12:07:48.146Z,26.56
2023-05-18T12:10:19.714Z,26.65
2023-05-18T12:12:52.229Z,27.01
2023-05-18T12:15:25.935Z,27.42
2023-05-18T12:17:59.823Z,27.49
2023-05-18T12:20:31.626Z,27.88
2023-05-18T12:23:03.667Z,28.01
2023-05-18T12:25:35.034Z,27.79
2023-05-18T12:28:05.141Z,26.60
2023-05-18T12:30:37.268Z,26.81
2023-05-18T12:33:09.197Z,26.74
2023-05-18T12:35:40.725Z,26.52
2023-05-18T12:38:12.316Z,25.26
2023-05-18T12:40:49.617Z,25.56
2023-05-18T12:43:21.169Z,25.22
2023-05-18T12:45:52.763Z,24.54
2023-05-18T12:48:26.842Z,25.10
2023-05-18T12:50:58.395Z,25.48
2023-05-18T12:53:34.234Z,26.08
2023-05-18T12:56:09.963Z,26.10
2023-05-18T12:58:44.803Z,25.99
2023-05-18T13:01:16.514Z,26.13
2023-05-18T13:03:48.717Z,25.95
2023-05-18T13:06:20.288Z,25.21
2023-05-18T13:08:54.440Z,25.33
2023-05-18T13:11:30.184Z,25.03
2023-05-18T13:14:05.535Z,25.45
2023-05-18T13:16:38.987Z,25.73
2023-05-18T13:19:11.701Z,25.05
2023-05-18T13:21:43.438Z,25.31
2023-05-18T13:24:15.244Z,25.56
2023-05-18T13:26:46.692Z,26.12
2023-05-18T13:29:16.486Z,25.83
2023-05-18T13:31:47.972Z,25.15
2023-05-18T13:34:19.437Z,25.17
2023-05-18T13:36:51.230Z,25.39
2023-05-18T13:39:23.221Z,25.41
2023-05-18T13:41:54.874Z,25.86
2023-05-18T13:44:26.264Z,26.05
2023-05-18T13:46:56.311Z,26.15
2023-05-18T13:49:27.945Z,25.94
2023-05-18T13:52:00.538Z,25.33
2023-05-18T13:54:32.225Z,24.95
2023-05-18T13:57:04.096Z,24.97
2023-05-18T13:59:35.893Z,25.12
2023-05-18T14:02:08.141Z,24.95
2023-05-18T14:04:39.642Z,24.53
2023-05-18T14:07:11.267Z,24.05
2023-05-18T14:09:41.043Z,24.10
2023-05-18T14:12:13.228Z,24.29
2023-05-18T14:14:44.811Z,24.01
2023-05-18T14:17:16.343Z,23.49
2023-05-18T14:19:47.922Z,23.58
2023-05-18T14:22:19.485Z,23.15
2023-05-18T14:24:51.276Z,23.31
2023-05-18T14:27:22.825Z,23.35
2023-05-18T14:29:54.712Z,23.39
2023-05-18T14:32:26.457Z,23.49
2023-05-18T14:34:58.838Z,23.74
2023-05-18T14:37:30.294Z,23.53
2023-05-18T14:40:01.768Z,23.08
2023-05-18T14:42:33.376Z,22.77
2023-05-18T14:45:05.171Z,22.81
2023-05-18T14:47:36.847Z,23.07
2023-05-18T14:50:09.824Z,23.33
2023-05-18T14:52:41.627Z,23.16
2023-05-18T14:55:13.638Z,22.63
2023-05-18T14:57:45.257Z,22.59
2023-05-18T15:00:18.299Z,22.56
2023-05-18T15:02:50.249Z,22.68
2023-05-18T15:05:21.848Z,22.82
2023-05-18T15:07:53.414Z,22.99
2023-05-18T15:10:25.201Z,23.40
2023-05-18T15:12:56.955Z,23.15
2023-05-18T15:15:28.381Z,23.20
2023-05-18T15:17:59.955Z,22.60
2023-05-18T15:20:32.880Z,22.96
2023-05-18T15:23:04.744Z,22.94
2023-05-18T15:25:36.182Z,22.81
2023-05-18T15:28:07.826Z,22.82
2023-05-18T15:30:39.989Z,22.65
2023-05-18T15:33:11.578Z,22.60
2023-05-18T15:35:43.198Z,22.80
2023-05-18T15:38:14.561Z,22.65
2023-05-18T15:40:48.432Z,22.84
2023-05-18T15:43:20.588Z,22.84
2023-05-18T15:45:52.126Z,22.78
2023-05-18T15:48:23.740Z,22.94
2023-05-18T15:50:55.300Z,23.15
2023-05-18T15:53:27.057Z,23.20
2023-05-18T15:55:59.591Z,23.11
2023-05-18T15:58:31.801Z,23.20
2023-05-18T16:01:03.295Z,23.03
2023-05-18T16:03:34.836Z,23.19
2023-05-18T16:06:06.810Z,23.26
2023-05-18T16:08:38.256Z,23.50
2023-05-18T16:11:09.804Z,23.26
2023-05-18T16:13:41.509Z,23.24
2023-05-18T16:16:14.370Z,23.42
2023-05-18T16:18:46.094Z,23.47
2023-05-18T16:21:17.805Z,23.65
2023-05-18T16:23:49.573Z,23.90
2023-05-18T16:26:22.351Z,24.30
2023-05-18T16:28:54.247Z,24.41
2023-05-18T16:31:26.054Z,24.80
2023-05-18T16:33:57.677Z,25.36
2023-05-18T16:36:29.466Z,25.61
2023-05-18T16:39:03.079Z,25.90
2023-05-18T16:41:34.856Z,26.41
2023-05-18T16:44:06.645Z,26.26
2023-05-18T16:46:38.262Z,26.37
2023-05-18T16:49:09.675Z,26.71
2023-05-18T16:51:40.294Z,27.08
2023-05-18T16:54:11.832Z,27.07
2023-05-18T16:56:43.337Z,27.43
2023-05-18T16:59:13.384Z,27.60
2023-05-18T17:01:45.288Z,27.86
2023-05-18T17:04:16.849Z,28.09
2023-05-18T17:06:48.626Z,28.28
2023-05-18T17:09:21.334Z,28.57
2023-05-18T17:11:53.024Z,28.80
2023-05-18T17:14:25.217Z,29.04
2023-05-18T17:16:56.693Z,29.22
2023-05-18T17:19:26.710Z,29.25
2023-05-18T17:21:58.360Z,29.68
2023-05-18T17:24:28.581Z,29.86
2023-05-18T17:27:00.213Z,30.04
2023-05-18T17:29:29.997Z,30.27
2023-05-18T17:32:01.688Z,30.57
2023-05-18T17:34:33.407Z,30.63
2023-05-18T17:37:03.645Z,30.72
2023-05-18T17:39:35.166Z,30.82
2023-05-18T17:42:07.545Z,30.97
2023-05-18T17:44:39.062Z,31.07
2023-05-18T17:47:10.798Z,31.29
2023-05-18T17:49:42.473Z,31.40
2023-05-18T17:52:14.327Z,31.55
2023-05-18T17:54:45.973Z,31.66
2023-05-18T17:57:15.921Z,31.96
2023-05-18T17:59:47.437Z,32.06
2023-05-18T18:02:18.805Z,32.16
2023-05-18T18:04:51.301Z,32.27
2023-05-18T18:07:23.277Z,32.30
2023-05-18T18:09:55.089Z,32.41
2023-05-18T18:12:26.599Z,32.32
2023-05-18T18:14:58.025Z,32.42
2023-05-18T18:17:29.681Z,32.50
2023-05-18T18:20:00.024Z,32.39
2023-05-18T18:22:33.648Z,32.56
2023-05-18T18:25:07.058Z,32.41
2023-05-18T18:27:38.511Z,32.57
2023-05-18T18:30:11.893Z,32.49
2023-05-18T18:32:43.662Z,32.66
2023-05-18T18:35:15.403Z,32.82
2023-05-18T18:37:47.613Z,32.91
2023-05-18T18:40:19.505Z,32.99
2023-05-18T18:42:51.640Z,33.14
2023-05-18T18:45:23.412Z,33.25
2023-05-18T18:47:53.182Z,33.26
2023-05-18T18:50:25.028Z,33.51
2023-05-18T18:52:56.479Z,33.27
2023-05-18T18:55:27.928Z,33.46
2023-05-18T18:58:01.360Z,33.52
2023-05-18T19:00:33.071Z,33.51
2023-05-18T19:03:04.786Z,33.65
2023-05-18T19:05:34.670Z,33.71
2023-05-18T19:08:07.028Z,33.81
2023-05-18T19:10:38.868Z,33.91
2023-05-18T19:13:10.353Z,33.89
2023-05-18T19:15:41.991Z,33.93
2023-05-18T19:18:13.414Z,34.00
2023-05-18T19:20:44.987Z,34.17
2023-05-18T19:23:14.870Z,34.28
2023-05-18T19:25:46.365Z,34.45
2023-05-18T19:28:18.012Z,34.45
2023-05-18T19:30:49.627Z,34.49
2023-05-18T19:33:21.543Z,34.46
2023-05-18T19:35:54.574Z,34.50
2023-05-18T19:38:26.604Z,34.50
2023-05-18T19:40:58.211Z,34.50
2023-05-18T19:43:30.918Z,34.51
2023-05-18T19:46:02.538Z,34.47
2023-05-18T19:48:34.162Z,34.60
2023-05-18T19:51:06.573Z,34.56
2023-05-18T19:53:38.321Z,34.65
2023-05-18T19:56:09.905Z,34.58
2023-05-18T19:58:41.421Z,34.62
2023-05-18T20:01:12.948Z,35.16
2023-05-18T20:03:44.437Z,35.40
2023-05-18T20:06:15.921Z,35.67
2023-05-18T20:08:48.140Z,35.81
2023-05-18T20:11:19.972Z,35.81
2023-05-18T20:13:51.386Z,35.70
2023-05-18T20:16:22.893Z,35.64
2023-05-18T20:18:54.329Z,35.88
2023-05-18T20:21:25.790Z,36.13
2023-05-18T20:23:57.656Z,36.30
2023-05-18T20:26:31.338Z,36.38
2023-05-18T20:29:03.877Z,36.68
2023-05-18T20:31:33.691Z,37.00
2023-05-18T20:34:07.146Z,37.26
2023-05-18T20:36:38.563Z,37.25
2023-05-18T20:39:10.662Z,37.38
2023-05-18T20:41:41.939Z,37.34
2023-05-18T20:44:14.413Z,37.55
2023-05-18T20:46:45.898Z,37.54
2023-05-18T20:49:17.512Z,37.68
2023-05-18T20:51:49.660Z,37.71
2023-05-18T20:54:21.696Z,37.70
2023-05-18T20:56:53.343Z,37.83
2023-05-18T20:59:23.159Z,37.88
2023-05-18T21:01:54.918Z,38.03
2023-05-18T21:04:26.363Z,38.02
2023-05-18T21:06:57.771Z,38.19
2023-05-18T21:09:31.459Z,38.35
2023-05-18T21:12:02.897Z,38.47
2023-05-18T21:14:34.431Z,38.45
2023-05-18T21:17:04.208Z,38.50
2023-05-18T21:19:35.621Z,38.48
2023-05-18T21:22:07.211Z,38.52
2023-05-18T21:24:37.040Z,38.53
2023-05-18T21:27:08.649Z,38.62
2023-05-18T21:29:40.111Z,38.61
2023-05-18T21:32:12.131Z,38.53
2023-05-18T21:34:43.902Z,38.62
2023-05-18T21:37:15.437Z,38.71
2023-05-18T21:39:47.154Z,38.83
2023-05-18T21:42:18.579Z,39.00
2023-05-18T21:44:48.500Z,39.08
2023-05-18T21:47:19.906Z,39.22
2023-05-18T21:49:52.281Z,39.28
2023-05-18T21:52:23.712Z,39.49
2023-05-18T21:54:55.215Z,39.46
2023-05-18T21:57:26.718Z,39.60
2023-05-18T21:59:56.534Z,39.51
2023-05-18T22:02:28.034Z,39.73
2023-05-18T22:04:59.443Z,39.77
2023-05-18T22:07:31.269Z,39.96
2023-05-18T22:10:02.729Z,40.00
2023-05-18T22:12:34.690Z,40.01
2023-05-18T22:15:07.704Z,39.96
2023-05-18T22:17:39.304Z,40.05
2023-05-18T22:20:11.723Z,40.14
2023-05-18T22:22:44.651Z,40.11
2023-05-18T22:25:18.338Z,40.14
2023-05-18T22:27:49.779Z,40.26
2023-05-18T22:30:24.059Z,40.32
2023-05-18T22:32:55.627Z,40.32
2023-05-18T22:35:25.480Z,40.39
2023-05-18T22:37:57.613Z,40.49
2023-05-18T22:40:28.991Z,40.43
2023-05-18T22:43:00.405Z,40.44
2023-05-18T22:45:31.878Z,40.45
2023-05-18T22:48:03.690Z,40.48
2023-05-18T22:50:35.514Z,40.41
2023-05-18T22:53:10.381Z,40.47
2023-05-18T22:55:41.841Z,40.57
2023-05-18T22:58:13.236Z,40.61
2023-05-18T23:00:44.688Z,40.72
2023-05-18T23:03:17.711Z,40.84
2023-05-18T23:05:49.663Z,40.87
2023-05-18T23:08:21.717Z,40.99
2023-05-18T23:10:53.071Z,40.94
2023-05-18T23:13:24.489Z,40.93
2023-05-18T23:15:57.030Z,40.97
2023-05-18T23:18:28.519Z,40.99
2023-05-18T23:20:59.995Z,41.00
2023-05-18T23:23:31.427Z,41.02
2023-05-18T23:26:02.999Z,41.05
2023-05-18T23:28:34.477Z,40.92
2023-05-18T23:31:05.925Z,40.89
2023-05-18T23:33:38.256Z,40.86
2023-05-18T23:36:10.872Z,40.94
2023-05-18T23:38:42.272Z,40.83
2023-05-18T23:41:13.729Z,40.86
2023-05-18T23:43:46.095Z,40.96
2023-05-18T23:46:18.891Z,41.05
2023-05-18T23:48:52.629Z,41.09
2023-05-18T23:51:24.368Z,41.36
2023-05-18T23:53:54.329Z,41.62
2023-05-18T23:56:26.651Z,41.86
2023-05-18T23:58:59.144Z,41.87
